createdAt,value
2023-05-22T00:02:05.590Z,57.96
2023-05-22T00:04:51.456Z,57.87
2023-05-22T00:07:39.471Z,58.63
2023-05-22T00:10:25.827Z,58.10
2023-05-22T00:13:12.475Z,58.29
2023-05-22T00:15:58.530Z,58.49
2023-05-22T00:18:45.138Z,58.49
2023-05-22T00:21:35.113Z,58.56
2023-05-22T00:24:22.076Z,58.74
2023-05-22T00:27:08.470Z,58.39
2023-05-22T00:29:54.604Z,58.58
2023-05-22T00:32:41.491Z,58.93
2023-05-22T00:35:29.942Z,58.64
2023-05-22T00:38:35.673Z,60.20
2023-05-22T00:41:22.374Z,59.47
2023-05-22T00:44:08.394Z,59.54
2023-05-22T00:46:54.656Z,59.63
2023-05-22T00:49:42.469Z,59.72
2023-05-22T00:52:28.550Z,59.77
2023-05-22T00:55:16.905Z,60.44
2023-05-22T00:58:08.229Z,60.46
2023-05-22T01:00:55.537Z,60.38
2023-05-22T01:03:45.153Z,60.56
2023-05-22T01:06:32.344Z,60.71
2023-05-22T01:09:18.911Z,60.97
2023-05-22T01:12:12.144Z,61.34
2023-05-22T01:15:03.232Z,61.16
2023-05-22T01:18:12.554Z,61.69
2023-05-22T01:21:47.540Z,62.59
2023-05-22T01:24:55.049Z,62.19
2023-05-22T01:28:19.715Z,62.44
2023-05-22T01:31:09.278Z,61.59
2023-05-22T01:33:58.006Z,61.72
2023-05-22T01:36:48.659Z,62.01
2023-05-22T01:39:36.580Z,62.01
2023-05-22T01:42:23.871Z,62.08
2023-05-22T01:45:11.846Z,62.46
2023-05-22T01:47:59.181Z,62.61
2023-05-22T01:50:48.612Z,62.75
2023-05-22T01:53:52.107Z,63.51
2023-05-22T01:56:55.405Z,63.36
2023-05-22T01:59:49.909Z,63.36
2023-05-22T02:02:41.732Z,63.22
2023-05-22T02:05:31.166Z,63.49
2023-05-22T02:08:18.707Z,63.54
2023-05-22T02:11:05.367Z,63.42
2023-05-22T02:13:52.593Z,63.56
2023-05-22T02:16:39.304Z,63.85
2023-05-22T02:19:26.427Z,64.20
2023-05-22T02:22:15.899Z,64.22
2023-05-22T02:25:02.683Z,64.27
2023-05-22T02:27:49.846Z,64.16
2023-05-22T02:30:36.957Z,64.01
2023-05-22T02:33:23.557Z,64.21
2023-05-22T02:36:12.065Z,64.29
2023-05-22T02:38:59.946Z,64.49
2023-05-22T02:41:46.306Z,64.43
2023-05-22T02:44:33.169Z,64.63
2023-05-22T02:47:19.168Z,64.54
2023-05-22T02:50:07.532Z,64.45
2023-05-22T02:52:54.356Z,64.91
2023-05-22T02:55:40.829Z,64.73
2023-05-22T02:58:27.128Z,65.10
2023-05-22T03:01:14.130Z,64.95
2023-05-22T03:04:00.209Z,65.29
2023-05-22T03:06:47.265Z,65.13
2023-05-22T03:09:33.660Z,65.42
2023-05-22T03:12:20.908Z,65.49
2023-05-22T03:15:07.978Z,65.43
2023-05-22T03:17:54.401Z,65.23
2023-05-22T03:20:41.088Z,65.37
2023-05-22T03:23:27.573Z,65.36
2023-05-22T03:26:14.803Z,65.50
2023-05-22T03:29:00.858Z,65.34
2023-05-22T03:31:48.533Z,65.30
2023-05-22T03:34:34.766Z,65.31
2023-05-22T03:37:23.079Z,65.11
2023-05-22T03:40:10.628Z,65.11
2023-05-22T03:42:57.379Z,64.89
2023-05-22T03:45:44.513Z,65.07
2023-05-22T03:48:31.784Z,64.97
2023-05-22T03:51:20.117Z,64.86
2023-05-22T03:54:07.141Z,64.85
2023-05-22T03:56:55.176Z,64.75
2023-05-22T03:59:41.336Z,64.92
2023-05-22T04:02:30.625Z,64.89
2023-05-22T04:05:17.199Z,64.83
2023-05-22T04:08:04.101Z,64.71
2023-05-22T04:10:50.189Z,64.59
2023-05-22T04:13:36.437Z,64.68
2023-05-22T04:16:24.829Z,64.63
2023-05-22T04:19:10.908Z,64.31
2023-05-22T04:21:58.848Z,64.66
2023-05-22T04:24:49.176Z,64.17
2023-05-22T04:27:38.205Z,64.28
2023-05-22T04:30:25.720Z,64.28
2023-05-22T04:33:13.141Z,64.21
2023-05-22T04:36:00.619Z,64.09
2023-05-22T04:38:47.749Z,64.13
2023-05-22T04:41:34.437Z,64.10
2023-05-22T04:44:23.939Z,64.21
2023-05-22T04:47:12.229Z,64.33
2023-05-22T04:50:00.221Z,64.10
2023-05-22T04:52:47.435Z,64.06
2023-05-22T04:55:34.250Z,64.03
2023-05-22T04:58:21.626Z,63.73
2023-05-22T05:01:07.643Z,63.57
2023-05-22T05:03:54.483Z,63.35
2023-05-22T05:06:40.861Z,63.46
2023-05-22T05:09:27.012Z,63.54
2023-05-22T05:12:14.299Z,63.35
2023-05-22T05:15:01.515Z,63.26
2023-05-22T05:17:47.655Z,63.13
2023-05-22T05:20:34.729Z,62.77
2023-05-22T05:23:23.106Z,62.99
2023-05-22T05:26:09.868Z,62.99
2023-05-22T05:28:57.124Z,62.76
2023-05-22T05:31:48.478Z,62.82
2023-05-22T05:34:49.746Z,63.43
2023-05-22T05:37:55.775Z,62.13
2023-05-22T05:40:45.232Z,62.34
2023-05-22T05:43:31.829Z,62.46
2023-05-22T05:46:24.576Z,61.93
2023-05-22T05:49:11.936Z,61.83
2023-05-22T05:51:59.682Z,61.26
2023-05-22T05:54:49.270Z,61.61
2023-05-22T05:57:39.443Z,61.17
2023-05-22T06:00:28.638Z,60.75
2023-05-22T06:03:19.673Z,60.90
2023-05-22T06:06:27.496Z,60.83
2023-05-22T06:09:28.722Z,60.50
2023-05-22T06:12:28.879Z,60.20
2023-05-22T06:15:14.768Z,60.15
2023-05-22T06:18:02.963Z,59.66
2023-05-22T06:20:49.233Z,59.47
2023-05-22T06:23:35.085Z,59.05
2023-05-22T06:26:22.453Z,58.33
2023-05-22T06:29:10.267Z,57.23
2023-05-22T06:31:57.038Z,56.83
2023-05-22T06:34:45.651Z,56.62
2023-05-22T06:37:36.085Z,56.75
2023-05-22T06:40:22.645Z,55.73
2023-05-22T06:43:12.444Z,55.77
2023-05-22T06:46:19.177Z,55.00
2023-05-22T06:49:11.896Z,54.37
2023-05-22T06:52:10.268Z,53.76
2023-05-22T06:55:04.308Z,52.65
2023-05-22T06:57:56.628Z,53.18
2023-05-22T07:00:44.708Z,51.97
2023-05-22T07:03:40.849Z,51.88
2023-05-22T07:06:51.084Z,50.18
2023-05-22T07:09:38.774Z,50.35
2023-05-22T07:12:26.367Z,49.35
2023-05-22T07:15:15.067Z,49.21
2023-05-22T07:18:06.913Z,48.68
2023-05-22T07:20:55.387Z,47.72
2023-05-22T07:23:43.094Z,47.52
2023-05-22T07:26:30.427Z,46.79
2023-05-22T07:29:25.821Z,46.92
2023-05-22T07:32:13.909Z,45.47
2023-05-22T07:35:01.869Z,45.99
2023-05-22T07:37:47.966Z,45.64
2023-05-22T07:40:35.942Z,45.78
2023-05-22T07:43:22.000Z,45.33
2023-05-22T07:46:09.633Z,45.74
2023-05-22T07:49:05.070Z,44.99
2023-05-22T07:51:52.695Z,45.06
2023-05-22T07:54:42.440Z,43.92
2023-05-22T07:57:31.050Z,43.48
2023-05-22T08:00:23.149Z,43.47
2023-05-22T08:03:09.386Z,43.41
2023-05-22T08:05:55.724Z,42.91
2023-05-22T08:08:41.542Z,42.05
2023-05-22T08:11:29.144Z,41.71
2023-05-22T08:14:15.917Z,40.40
2023-05-22T08:17:02.709Z,40.95
2023-05-22T08:19:48.940Z,40.51
2023-05-22T08:22:35.706Z,40.26
2023-05-22T08:25:22.032Z,40.01
2023-05-22T08:28:07.869Z,38.45
2023-05-22T08:30:55.746Z,38.53
2023-05-22T08:33:41.756Z,38.18
2023-05-22T08:36:31.859Z,37.53
2023-05-22T08:39:19.153Z,37.58
2023-05-22T08:42:06.395Z,36.11
2023-05-22T08:44:53.015Z,36.23
2023-05-22T08:47:41.252Z,35.75
2023-05-22T08:50:28.789Z,35.99
2023-05-22T08:53:16.962Z,35.17
2023-05-22T08:56:05.517Z,34.67
2023-05-22T08:58:52.844Z,34.77
2023-05-22T09:01:40.052Z,35.17
2023-05-22T09:04:28.328Z,34.75
2023-05-22T09:07:15.064Z,36.20
2023-05-22T09:10:05.183Z,35.04
2023-05-22T09:13:09.748Z,34.61
2023-05-22T09:16:00.939Z,34.11
2023-05-22T09:18:47.571Z,34.16
2023-05-22T09:21:37.233Z,33.64
2023-05-22T09:24:23.786Z,34.58
2023-05-22T09:27:11.556Z,33.88
2023-05-22T09:29:59.497Z,33.04
2023-05-22T09:32:46.853Z,32.50
2023-05-22T09:35:37.744Z,30.98
2023-05-22T09:38:29.715Z,33.14
2023-05-22T09:41:22.732Z,31.06
2023-05-22T09:44:16.354Z,31.10
2023-05-22T09:47:04.402Z,28.72
2023-05-22T09:49:50.637Z,29.94
2023-05-22T09:52:38.818Z,29.02
2023-05-22T09:55:26.498Z,29.81
2023-05-22T09:58:15.140Z,28.93
2023-05-22T10:01:01.762Z,29.17
2023-05-22T10:03:52.590Z,28.34
2023-05-22T10:06:39.916Z,28.46
2023-05-22T10:09:31.535Z,29.11
2023-05-22T10:12:20.805Z,28.71
2023-05-22T10:15:09.379Z,28.23
2023-05-22T10:17:56.625Z,29.45
2023-05-22T10:20:43.765Z,29.42
2023-05-22T10:23:31.428Z,28.08
2023-05-22T10:26:19.529Z,28.60
2023-05-22T10:29:18.006Z,27.36
2023-05-22T10:32:21.738Z,27.85
2023-05-22T10:35:30.799Z,27.27
2023-05-22T10:38:22.642Z,27.04
2023-05-22T10:41:11.237Z,25.95
2023-05-22T10:43:58.024Z,25.25
2023-05-22T10:46:50.839Z,26.76
2023-05-22T10:49:39.185Z,27.50
2023-05-22T10:52:26.201Z,27.44
2023-05-22T10:55:13.907Z,27.02
2023-05-22T10:58:13.083Z,25.93
2023-05-22T11:01:19.935Z,26.47
2023-05-22T11:04:16.062Z,26.30
2023-05-22T11:07:08.107Z,27.50
2023-05-22T11:10:00.513Z,26.19
2023-05-22T11:12:47.370Z,26.28
2023-05-22T11:15:33.514Z,27.13
2023-05-22T11:18:21.012Z,26.81
2023-05-22T11:21:10.143Z,27.18
2023-05-22T11:24:01.128Z,27.39
2023-05-22T11:27:02.023Z,26.19
2023-05-22T11:29:49.900Z,25.03
2023-05-22T11:32:37.686Z,24.84
2023-05-22T11:35:24.642Z,25.79
2023-05-22T11:38:11.675Z,26.38
2023-05-22T11:40:59.015Z,25.85
2023-05-22T11:43:45.382Z,26.49
2023-05-22T11:46:31.815Z,26.16
2023-05-22T11:49:18.270Z,26.26
2023-05-22T11:52:04.965Z,24.84
2023-05-22T11:54:52.664Z,25.54
2023-05-22T11:57:39.581Z,25.67
2023-05-22T12:00:26.290Z,25.33
2023-05-22T12:03:14.026Z,25.56
2023-05-22T12:06:01.939Z,24.17
2023-05-22T12:08:48.730Z,25.84
2023-05-22T12:11:36.452Z,24.09
2023-05-22T12:14:31.432Z,24.22
2023-05-22T12:17:18.983Z,25.09
2023-05-22T12:20:06.341Z,25.59
2023-05-22T12:22:56.992Z,25.71
2023-05-22T12:25:42.936Z,25.29
2023-05-22T12:28:36.635Z,24.07
2023-05-22T12:31:25.076Z,24.18
2023-05-22T12:34:11.805Z,24.66
2023-05-22T12:36:58.021Z,24.73
2023-05-22T12:40:00.579Z,23.65
2023-05-22T12:42:48.092Z,23.83
2023-05-22T12:45:35.043Z,25.13
2023-05-22T12:48:22.067Z,26.42
2023-05-22T12:51:12.187Z,26.91
2023-05-22T12:54:00.228Z,27.75
2023-05-22T12:56:46.007Z,28.16
2023-05-22T12:59:34.174Z,28.40
2023-05-22T13:02:20.287Z,28.22
2023-05-22T13:05:07.146Z,26.52
2023-05-22T13:07:53.362Z,26.97
2023-05-22T13:10:40.405Z,28.79
2023-05-22T13:13:27.103Z,28.44
2023-05-22T13:16:13.905Z,28.51
2023-05-22T13:19:00.182Z,29.03
2023-05-22T13:21:46.206Z,29.44
2023-05-22T13:24:32.251Z,28.92
2023-05-22T13:27:18.908Z,30.28
2023-05-22T13:30:06.766Z,29.24
2023-05-22T13:32:52.761Z,29.36
2023-05-22T13:35:40.671Z,29.82
2023-05-22T13:38:27.774Z,31.07
2023-05-22T13:41:16.033Z,30.71
2023-05-22T13:44:02.029Z,30.93
2023-05-22T13:46:49.109Z,31.08
2023-05-22T13:49:35.444Z,31.68
2023-05-22T13:52:22.533Z,32.42
2023-05-22T13:55:09.778Z,32.13
2023-05-22T13:57:55.944Z,31.38
2023-05-22T14:00:43.130Z,31.26
2023-05-22T14:03:29.332Z,31.90
2023-05-22T14:06:15.569Z,32.03
2023-05-22T14:09:01.669Z,32.62
2023-05-22T14:11:48.354Z,32.02
2023-05-22T14:14:34.325Z,31.92
2023-05-22T14:17:21.309Z,32.63
2023-05-22T14:20:09.154Z,33.00
2023-05-22T14:22:57.859Z,33.11
2023-05-22T14:25:45.855Z,32.96
2023-05-22T14:28:32.374Z,33.05
2023-05-22T14:31:18.797Z,32.99
2023-05-22T14:34:06.441Z,33.75
2023-05-22T14:36:55.768Z,35.10
2023-05-22T14:39:42.291Z,32.88
2023-05-22T14:42:29.324Z,33.03
2023-05-22T14:45:15.397Z,34.27
2023-05-22T14:48:02.068Z,34.17
2023-05-22T14:50:50.664Z,33.93
2023-05-22T14:53:37.131Z,33.81
2023-05-22T14:56:24.815Z,33.73
2023-05-22T14:59:11.829Z,34.64
2023-05-22T15:01:59.305Z,34.01
2023-05-22T15:04:46.313Z,33.69
2023-05-22T15:10:23.112Z,32.96
2023-05-22T15:13:10.525Z,33.13
2023-05-22T15:15:58.209Z,33.19
2023-05-22T15:18:44.858Z,33.68
2023-05-22T15:21:37.754Z,33.10
2023-05-22T15:24:24.088Z,33.32
2023-05-22T15:27:12.465Z,33.15
2023-05-22T15:30:01.674Z,33.54
2023-05-22T15:32:48.096Z,32.89
2023-05-22T15:35:34.248Z,32.95
2023-05-22T15:38:21.472Z,33.13
2023-05-22T15:41:07.646Z,33.30
2023-05-22T15:43:54.489Z,32.99
2023-05-22T15:46:42.756Z,33.07
2023-05-22T15:49:31.206Z,32.66
2023-05-22T15:52:18.269Z,32.92
2023-05-22T15:55:06.024Z,33.84
2023-05-22T15:58:08.345Z,34.21
2023-05-22T16:00:56.162Z,33.94
2023-05-22T16:03:47.048Z,34.12
2023-05-22T16:06:33.928Z,34.60
2023-05-22T16:09:20.251Z,34.30
2023-05-22T16:12:07.134Z,34.30
2023-05-22T16:14:59.452Z,34.77
2023-05-22T16:17:47.010Z,34.94
2023-05-22T16:20:33.886Z,34.05
2023-05-22T16:23:21.716Z,33.65
2023-05-22T16:26:08.115Z,34.34
2023-05-22T16:28:57.789Z,34.60
2023-05-22T16:31:43.848Z,34.18
2023-05-22T16:34:32.213Z,34.64
2023-05-22T16:37:18.128Z,34.62
2023-05-22T16:40:05.969Z,34.60
2023-05-22T16:42:51.898Z,34.81
2023-05-22T16:45:38.290Z,35.05
2023-05-22T16:48:24.383Z,35.42
2023-05-22T16:51:12.077Z,35.20
2023-05-22T16:53:58.287Z,35.29
2023-05-22T16:56:44.623Z,35.05
2023-05-22T16:59:31.044Z,34.67
2023-05-22T17:02:17.582Z,35.29
2023-05-22T17:05:05.127Z,35.53
2023-05-22T17:07:51.415Z,36.07
2023-05-22T17:10:37.646Z,35.87
2023-05-22T17:13:24.733Z,35.15
2023-05-22T17:16:10.841Z,35.22
2023-05-22T17:18:57.596Z,35.45
2023-05-22T17:21:44.997Z,35.85
2023-05-22T17:24:31.008Z,35.66
2023-05-22T17:27:31.666Z,35.60
2023-05-22T17:30:22.008Z,35.66
2023-05-22T17:33:09.167Z,35.68
2023-05-22T17:35:55.340Z,36.17
2023-05-22T17:38:41.657Z,36.65
2023-05-22T17:41:33.628Z,36.52
2023-05-22T17:44:20.592Z,36.48
2023-05-22T17:47:06.912Z,36.92
2023-05-22T17:49:53.709Z,37.53
2023-05-22T17:52:41.271Z,37.66
2023-05-22T17:55:28.653Z,37.99
2023-05-22T17:58:15.920Z,38.12
2023-05-22T18:01:07.189Z,38.32
2023-05-22T18:03:53.324Z,38.36
2023-05-22T18:06:40.512Z,38.61
2023-05-22T18:09:26.814Z,38.47
2023-05-22T18:12:30.135Z,38.87
2023-05-22T18:15:18.320Z,39.09
2023-05-22T18:18:04.455Z,39.16
2023-05-22T18:20:51.730Z,39.46
2023-05-22T18:23:37.616Z,40.02
2023-05-22T18:26:23.725Z,40.04
2023-05-22T18:29:10.152Z,40.14
2023-05-22T18:31:56.808Z,40.02
2023-05-22T18:34:44.193Z,40.22
2023-05-22T18:37:39.900Z,40.67
2023-05-22T18:40:28.604Z,40.64
2023-05-22T18:43:16.125Z,40.67
2023-05-22T18:46:03.131Z,41.09
2023-05-22T18:48:50.055Z,40.99
2023-05-22T18:51:39.179Z,41.44
2023-05-22T18:54:27.525Z,41.55
2023-05-22T18:57:14.039Z,41.66
2023-05-22T19:00:00.212Z,41.96
2023-05-22T19:02:47.897Z,41.84
2023-05-22T19:05:40.745Z,42.71
2023-05-22T19:08:27.885Z,43.12
2023-05-22T19:11:19.906Z,44.36
2023-05-22T19:14:05.843Z,44.29
2023-05-22T19:16:53.080Z,44.96
2023-05-22T19:19:39.110Z,45.42
2023-05-22T19:22:25.957Z,45.10
2023-05-22T19:25:12.398Z,45.01
2023-05-22T19:27:59.411Z,44.90
2023-05-22T19:30:46.247Z,45.34
2023-05-22T19:33:33.961Z,45.02
2023-05-22T19:36:24.240Z,46.33
2023-05-22T19:39:13.323Z,46.85
2023-05-22T19:41:59.916Z,47.13
2023-05-22T19:44:48.248Z,47.03
2023-05-22T19:47:34.180Z,46.94
2023-05-22T19:50:20.388Z,47.04
2023-05-22T19:53:07.791Z,47.56
2023-05-22T19:55:53.791Z,47.62
2023-05-22T19:58:40.800Z,47.50
2023-05-22T20:01:27.004Z,48.64
2023-05-22T20:04:13.761Z,48.92
2023-05-22T20:06:59.848Z,49.50
2023-05-22T20:09:47.499Z,49.52
2023-05-22T20:12:34.073Z,49.10
2023-05-22T20:15:22.901Z,49.37
2023-05-22T20:18:10.999Z,49.45
2023-05-22T20:20:58.663Z,49.72
2023-05-22T20:23:44.424Z,50.28
2023-05-22T20:26:37.532Z,50.37
2023-05-22T20:29:23.734Z,50.29
2023-05-22T20:32:11.656Z,50.67
2023-05-22T20:35:01.051Z,50.46
2023-05-22T20:37:47.877Z,50.98
2023-05-22T20:40:34.754Z,51.78
2023-05-22T20:43:21.070Z,52.52
2023-05-22T20:46:07.155Z,52.89
2023-05-22T20:48:54.586Z,53.17
2023-05-22T20:51:40.676Z,53.47
2023-05-22T20:54:31.178Z,53.53
2023-05-22T20:57:17.436Z,53.54
2023-05-22T21:00:06.330Z,53.84
2023-05-22T21:02:52.511Z,53.47
2023-05-22T21:05:40.665Z,53.86
2023-05-22T21:08:27.409Z,53.62
2023-05-22T21:11:15.198Z,53.97
2023-05-22T21:14:01.278Z,53.79
2023-05-22T21:16:48.016Z,53.83
2023-05-22T21:19:34.511Z,53.87
2023-05-22T21:22:21.204Z,53.40
2023-05-22T21:25:08.092Z,53.72
2023-05-22T21:27:55.085Z,53.66
2023-05-22T21:30:41.340Z,54.14
2023-05-22T21:33:28.022Z,54.70
2023-05-22T21:36:14.247Z,55.34
2023-05-22T21:39:01.364Z,55.94
2023-05-22T21:41:49.363Z,56.92
2023-05-22T21:44:37.937Z,56.54
2023-05-22T21:47:23.993Z,56.50
2023-05-22T21:50:11.422Z,56.66
2023-05-22T21:52:57.225Z,57.37
2023-05-22T21:55:44.253Z,57.39
2023-05-22T21:58:30.358Z,57.54
2023-05-22T22:01:18.207Z,57.39
2023-05-22T22:04:04.806Z,57.02
2023-05-22T22:06:51.494Z,56.68
2023-05-22T22:09:37.623Z,56.11
2023-05-22T22:12:25.560Z,55.85
2023-05-22T22:15:12.263Z,56.02
2023-05-22T22:18:03.618Z,56.09
2023-05-22T22:20:54.120Z,56.25
2023-05-22T22:23:42.130Z,56.30
2023-05-22T22:26:30.802Z,56.49
2023-05-22T22:29:17.650Z,56.42
2023-05-22T22:32:03.880Z,56.81
2023-05-22T22:34:54.424Z,57.17
2023-05-22T22:37:40.725Z,57.31
2023-05-22T22:40:27.135Z,57.77
2023-05-22T22:43:13.155Z,57.85
2023-05-22T22:46:00.756Z,58.11
2023-05-22T22:48:46.915Z,59.77
2023-05-22T22:51:33.858Z,61.38
2023-05-22T22:54:20.648Z,62.56
2023-05-22T22:57:07.795Z,62.19
2023-05-22T22:59:53.932Z,62.86
2023-05-22T23:02:41.099Z,63.33
2023-05-22T23:05:27.210Z,63.75
2023-05-22T23:08:14.642Z,64.01
2023-05-22T23:11:01.105Z,65.16
2023-05-22T23:13:48.888Z,66.10
2023-05-22T23:16:42.274Z,67.18
2023-05-22T23:19:31.266Z,66.66
2023-05-22T23:22:19.034Z,65.98
2023-05-22T23:25:06.637Z,66.10
2023-05-22T23:27:52.929Z,66.12
2023-05-22T23:30:41.764Z,66.05
2023-05-22T23:33:28.297Z,67.40
2023-05-22T23:36:16.357Z,68.84
2023-05-22T23:39:02.624Z,71.28
2023-05-22T23:41:49.931Z,73.27
2023-05-22T23:44:39.382Z,74.50
2023-05-22T23:47:25.615Z,76.20
2023-05-22T23:50:12.212Z,77.39
2023-05-22T23:52:59.426Z,78.53
2023-05-22T23:55:45.800Z,78.33
2023-05-22T23:58:33.541Z,79.10
